createdAt,value
2018-08-09T00:00:21.401Z,100079.38
2018-08-09T00:02:50.102Z,100082.66
2018-08-09T00:05:18.821Z,100087.55
2018-08-09T00:07:47.533Z,100083.45
2018-08-09T00:10:16.305Z,100081.55
2018-08-09T00:12:45.354Z,100094.32
2018-08-09T00:15:14.235Z,100096.50
2018-08-09T00:17:43.498Z,100090.22
2018-08-09T00:20:12.566Z,100092.16
2018-08-09T00:22:41.329Z,100085.87
2018-08-09T00:25:10.062Z,100082.88
2018-08-09T00:27:38.766Z,100084.50
2018-08-09T00:30:07.933Z,100085.30
2018-08-09T00:32:36.777Z,100090.95
2018-08-09T00:35:05.620Z,100093.38
2018-08-09T00:37:34.328Z,100097.47
2018-08-09T00:40:03.125Z,100100.17
2018-08-09T00:42:31.839Z,100106.94
2018-08-09T00:45:00.556Z,100108.81
2018-08-09T00:47:29.334Z,100105.31
2018-08-09T00:49:58.060Z,100099.30
2018-08-09T00:52:26.813Z,100105.80
2018-08-09T00:54:55.531Z,100111.53
2018-08-09T00:57:24.402Z,100106.39
2018-08-09T00:59:53.174Z,100112.42
2018-08-09T01:02:21.885Z,100105.94
2018-08-09T01:04:50.585Z,100114.85
2018-08-09T01:07:19.324Z,100104.16
2018-08-09T01:09:48.034Z,100115.58
2018-08-09T01:12:16.821Z,100115.03
2018-08-09T01:14:45.532Z,100116.64
2018-08-09T01:17:14.267Z,100113.95
2018-08-09T01:19:43.004Z,100123.19
2018-08-09T01:22:11.762Z,100115.28
2018-08-09T01:24:40.534Z,100115.85
2018-08-09T01:27:09.910Z,100115.64
2018-08-09T01:29:40.005Z,100113.22
2018-08-09T01:32:08.762Z,100105.63
2018-08-09T01:34:37.480Z,100110.20
2018-08-09T01:37:06.204Z,100108.00
2018-08-09T01:39:34.894Z,100116.09
2018-08-09T01:42:14.785Z,100108.95
2018-08-09T01:44:43.619Z,100111.95
2018-08-09T01:47:17.823Z,100111.67
2018-08-09T01:49:46.547Z,100122.31
2018-08-09T01:52:15.536Z,100115.52
2018-08-09T01:54:44.257Z,100110.31
2018-08-09T01:57:12.985Z,100120.13
2018-08-09T01:59:41.722Z,100123.36
2018-08-09T02:02:10.429Z,100124.41
2018-08-09T02:04:39.219Z,100129.20
2018-08-09T02:07:07.906Z,100128.08
2018-08-09T02:09:36.604Z,100136.72
2018-08-09T02:12:05.797Z,100134.55
2018-08-09T02:14:34.553Z,100136.50
2018-08-09T02:17:03.253Z,100140.30
2018-08-09T02:19:31.974Z,100139.97
2018-08-09T02:22:00.674Z,100139.13
2018-08-09T02:24:29.404Z,100140.94
2018-08-09T02:26:58.125Z,100138.53
2018-08-09T02:29:26.859Z,100136.98
2018-08-09T02:31:55.629Z,100146.48
2018-08-09T02:34:24.368Z,100142.97
2018-08-09T02:36:53.114Z,100148.36
2018-08-09T02:39:21.903Z,100144.05
2018-08-09T02:41:50.663Z,100150.40
2018-08-09T02:44:19.415Z,100151.70
2018-08-09T02:46:48.238Z,100154.38
2018-08-09T02:49:16.946Z,100150.80
2018-08-09T02:51:45.718Z,100156.77
2018-08-09T02:54:14.576Z,100161.65
2018-08-09T02:56:43.323Z,100157.03
2018-08-09T02:59:12.099Z,100161.98
2018-08-09T03:01:40.856Z,100170.17
2018-08-09T03:04:09.605Z,100161.98
2018-08-09T03:06:38.330Z,100166.55
2018-08-09T03:09:10.157Z,100161.38
2018-08-09T03:11:38.898Z,100168.81
2018-08-09T03:14:07.665Z,100176.42
2018-08-09T03:16:36.402Z,100174.73
2018-08-09T03:19:05.113Z,100173.60
2018-08-09T03:21:33.896Z,100170.61
2018-08-09T03:24:02.665Z,100170.34
2018-08-09T03:26:31.398Z,100177.26
2018-08-09T03:29:00.118Z,100173.23
2018-08-09T03:31:28.821Z,100183.02
2018-08-09T03:33:57.568Z,100173.94
2018-08-09T03:36:26.283Z,100188.12
2018-08-09T03:38:55.013Z,100188.67
2018-08-09T03:41:23.721Z,100190.89
2018-08-09T03:43:52.476Z,100190.62
2018-08-09T03:46:21.390Z,100191.44
2018-08-09T03:48:50.193Z,100192.84
2018-08-09T03:51:18.946Z,100189.89
2018-08-09T03:53:47.683Z,100203.31
2018-08-09T03:56:16.447Z,100200.52
2018-08-09T03:58:45.222Z,100206.87
2018-08-09T04:01:13.949Z,100207.43
2018-08-09T04:03:42.657Z,100213.14
2018-08-09T04:06:11.385Z,100207.68
2018-08-09T04:08:40.143Z,100209.89
2018-08-09T04:11:08.928Z,100212.07
2018-08-09T04:13:37.699Z,100210.95
2018-08-09T04:16:06.555Z,100210.94
2018-08-09T04:18:35.266Z,100215.67
2018-08-09T04:21:04.047Z,100218.06
2018-08-09T04:23:32.750Z,100219.34
2018-08-09T04:26:01.491Z,100220.47
2018-08-09T04:28:30.222Z,100215.41
2018-08-09T04:30:58.960Z,100212.13
2018-08-09T04:33:27.704Z,100221.41
2018-08-09T04:35:56.512Z,100222.89
2018-08-09T04:38:25.388Z,100224.23
2018-08-09T04:40:54.105Z,100221.86
2018-08-09T04:43:22.902Z,100221.97
2018-08-09T04:45:51.610Z,100229.00
2018-08-09T04:48:20.426Z,100232.56
2018-08-09T04:50:49.215Z,100238.94
2018-08-09T04:53:17.972Z,100227.03
2018-08-09T04:55:46.754Z,100231.97
2018-08-09T04:58:15.517Z,100231.26
2018-08-09T05:00:44.265Z,100226.51
2018-08-09T05:03:13.026Z,100232.75
2018-08-09T05:05:41.740Z,100232.34
2018-08-09T05:08:10.451Z,100237.36
2018-08-09T05:10:39.224Z,100234.20
2018-08-09T05:13:07.950Z,100249.17
2018-08-09T05:15:36.723Z,100246.73
2018-08-09T05:18:05.561Z,100256.84
2018-08-09T05:20:34.260Z,100248.64
2018-08-09T05:23:03.005Z,100253.84
2018-08-09T05:25:31.755Z,100248.41
2018-08-09T05:28:00.523Z,100240.79
2018-08-09T05:30:29.247Z,100248.17
2018-08-09T05:32:58.016Z,100250.84
2018-08-09T05:35:26.730Z,100252.81
2018-08-09T05:37:55.461Z,100253.70
2018-08-09T05:40:24.239Z,100246.09
2018-08-09T05:42:52.956Z,100253.10
2018-08-09T05:45:22.134Z,100248.25
2018-08-09T05:47:50.968Z,100257.54
2018-08-09T05:50:19.689Z,100250.17
2018-08-09T05:52:48.532Z,100254.39
2018-08-09T05:55:17.254Z,100255.09
2018-08-09T05:57:46.017Z,100261.85
2018-08-09T06:00:14.898Z,100247.26
2018-08-09T06:02:43.657Z,100244.16
2018-08-09T06:05:12.385Z,100239.50
2018-08-09T06:07:41.096Z,100235.23
2018-08-09T06:10:09.861Z,100235.23
2018-08-09T06:12:38.597Z,100241.50
2018-08-09T06:15:07.353Z,100246.50
2018-08-09T06:17:36.094Z,100242.94
2018-08-09T06:20:05.605Z,100250.14
2018-08-09T06:22:34.358Z,100239.25
2018-08-09T06:25:03.057Z,100240.97
2018-08-09T06:27:31.813Z,100238.79
2018-08-09T06:30:00.533Z,100234.83
2018-08-09T06:32:29.252Z,100240.02
2018-08-09T06:34:57.993Z,100238.84
2018-08-09T06:37:26.715Z,100237.45
2018-08-09T06:39:55.418Z,100239.84
2018-08-09T06:42:25.056Z,100236.45
2018-08-09T06:44:54.320Z,100243.46
2018-08-09T06:47:23.152Z,100237.37
2018-08-09T06:49:51.997Z,100235.84
2018-08-09T06:52:20.701Z,100239.72
2018-08-09T06:54:49.450Z,100234.97
2018-08-09T06:57:18.160Z,100230.42
2018-08-09T06:59:46.888Z,100234.95
2018-08-09T07:02:15.608Z,100218.59
2018-08-09T07:04:44.674Z,100238.63
2018-08-09T07:07:13.425Z,100241.86
2018-08-09T07:09:42.192Z,100237.04
2018-08-09T07:12:10.897Z,100240.79
2018-08-09T07:14:39.635Z,100246.41
2018-08-09T07:17:08.375Z,100245.91
2018-08-09T07:19:37.209Z,100250.48
2018-08-09T07:22:06.192Z,100252.42
2018-08-09T07:24:34.933Z,100249.77
2018-08-09T07:27:03.645Z,100247.62
2018-08-09T07:29:32.346Z,100255.17
2018-08-09T07:32:01.085Z,100249.45
2018-08-09T07:34:29.812Z,100250.63
2018-08-09T07:36:58.521Z,100241.92
2018-08-09T07:39:27.313Z,100244.22
2018-08-09T07:41:55.982Z,100246.45
2018-08-09T07:44:24.740Z,100244.92
2018-08-09T07:46:53.444Z,100243.59
2018-08-09T07:49:22.387Z,100249.22
2018-08-09T07:51:51.296Z,100248.72
2018-08-09T07:54:20.078Z,100242.35
2018-08-09T07:56:48.953Z,100239.30
2018-08-09T07:59:17.705Z,100234.25
2018-08-09T08:01:46.421Z,100239.05
2018-08-09T08:04:15.147Z,100242.56
2018-08-09T08:06:43.865Z,100248.30
2018-08-09T08:09:13.165Z,100246.32
2018-08-09T08:11:41.868Z,100250.00
2018-08-09T08:14:10.582Z,100247.65
2018-08-09T08:16:39.305Z,100238.92
2018-08-09T08:19:08.033Z,100243.46
2018-08-09T08:21:37.635Z,100242.84
2018-08-09T08:24:06.430Z,100240.08
2018-08-09T08:26:35.151Z,100240.63
2018-08-09T08:29:03.874Z,100238.20
2018-08-09T08:31:32.576Z,100231.33
2018-08-09T08:34:01.390Z,100236.31
2018-08-09T08:36:30.117Z,100232.73
2018-08-09T08:38:58.816Z,100228.02
2018-08-09T08:41:27.622Z,100233.03
2018-08-09T08:43:56.382Z,100233.80
2018-08-09T08:46:25.197Z,100235.18
2018-08-09T08:48:54.281Z,100234.57
2018-08-09T08:51:23.010Z,100223.20
2018-08-09T08:53:51.758Z,100232.41
2018-08-09T08:56:20.489Z,100231.83
2018-08-09T08:58:49.335Z,100229.43
2018-08-09T09:01:18.344Z,100227.03
2018-08-09T09:03:47.109Z,100230.20
2018-08-09T09:06:15.861Z,100234.65
2018-08-09T09:08:44.754Z,100230.01
2018-08-09T09:11:13.490Z,100227.41
2018-08-09T09:13:42.235Z,100229.01
2018-08-09T09:16:10.951Z,100225.34
2018-08-09T09:18:43.275Z,100228.48
2018-08-09T09:21:18.288Z,100229.23
2018-08-09T09:23:53.899Z,100226.23
2018-08-09T09:26:22.923Z,100230.50
2018-08-09T09:28:51.634Z,100209.13
2018-08-09T09:31:20.385Z,100228.64
2018-08-09T09:33:49.125Z,100228.16
2018-08-09T09:36:17.940Z,100216.73
2018-08-09T09:38:46.832Z,100222.00
2018-08-09T09:41:16.962Z,100219.10
2018-08-09T09:43:45.942Z,100222.73
2018-08-09T09:46:14.681Z,100216.25
2018-08-09T09:48:43.401Z,100217.89
2018-08-09T09:51:12.120Z,100221.16
2018-08-09T09:53:40.966Z,100214.30
2018-08-09T09:56:09.697Z,100211.20
2018-08-09T09:58:38.459Z,100212.63
2018-08-09T10:01:12.321Z,100216.11
2018-08-09T10:03:41.098Z,100210.95
2018-08-09T10:06:09.832Z,100210.06
2018-08-09T10:08:38.574Z,100205.65
2018-08-09T10:11:07.346Z,100206.49
2018-08-09T10:13:36.111Z,100205.86
2018-08-09T10:16:04.880Z,100201.50
2018-08-09T10:18:33.634Z,100207.62
2018-08-09T10:21:02.423Z,100208.13
2018-08-09T10:23:31.187Z,100206.56
2018-08-09T10:25:59.942Z,100207.27
2018-08-09T10:28:28.689Z,100206.36
2018-08-09T10:30:57.698Z,100204.59
2018-08-09T10:33:26.434Z,100198.40
2018-08-09T10:35:55.170Z,100188.59
2018-08-09T10:38:23.942Z,100192.94
2018-08-09T10:40:52.670Z,100198.83
2018-08-09T10:43:21.395Z,100190.45
2018-08-09T10:45:50.135Z,100189.13
2018-08-09T10:48:18.881Z,100188.33
2018-08-09T10:50:47.632Z,100186.88
2018-08-09T10:53:16.456Z,100183.31
2018-08-09T10:55:45.363Z,100183.77
2018-08-09T10:58:14.205Z,100178.86
2018-08-09T11:00:43.282Z,100174.83
2018-08-09T11:03:12.044Z,100173.63
2018-08-09T11:05:40.818Z,100173.96
2018-08-09T11:08:09.646Z,100169.62
2018-08-09T11:10:38.449Z,100172.65
2018-08-09T11:13:07.200Z,100174.56
2018-08-09T11:15:35.932Z,100172.39
2018-08-09T11:18:04.713Z,100172.31
2018-08-09T11:20:33.448Z,100163.55
2018-08-09T11:23:02.265Z,100170.26
2018-08-09T11:25:31.007Z,100170.31
2018-08-09T11:28:00.008Z,100161.41
2018-08-09T11:30:28.809Z,100171.04
2018-08-09T11:32:57.555Z,100170.88
2018-08-09T11:35:26.371Z,100170.23
2018-08-09T11:37:55.075Z,100163.45
2018-08-09T11:40:23.791Z,100170.35
2018-08-09T11:42:52.560Z,100163.39
2018-08-09T11:45:21.260Z,100168.14
2018-08-09T11:47:50.017Z,100162.16
2018-08-09T11:50:19.013Z,100163.65
2018-08-09T11:52:47.726Z,100165.48
2018-08-09T11:55:16.729Z,100164.23
2018-08-09T11:57:45.470Z,100160.03
2018-08-09T12:00:14.735Z,100161.95
2018-08-09T12:02:43.440Z,100157.50
2018-08-09T12:05:12.202Z,100148.93
2018-08-09T12:07:40.902Z,100157.73
2018-08-09T12:10:09.690Z,100148.67
2018-08-09T12:12:38.526Z,100149.25
2018-08-09T12:15:07.411Z,100151.52
2018-08-09T12:17:36.146Z,100152.24
2018-08-09T12:20:05.357Z,100146.03
2018-08-09T12:22:34.069Z,100150.20
2018-08-09T12:25:02.900Z,100145.63
2018-08-09T12:27:31.647Z,100148.50
2018-08-09T12:30:00.375Z,100141.54
2018-08-09T12:32:29.198Z,100146.98
2018-08-09T12:34:57.946Z,100137.90
2018-08-09T12:37:26.835Z,100136.92
2018-08-09T12:39:55.544Z,100135.66
2018-08-09T12:42:24.279Z,100134.09
2018-08-09T12:44:53.006Z,100128.95
2018-08-09T12:47:21.724Z,100124.00
2018-08-09T12:49:50.641Z,100121.16
2018-08-09T12:52:19.355Z,100121.94
2018-08-09T12:54:48.094Z,100118.26
2018-08-09T12:57:17.092Z,100125.30
2018-08-09T12:59:45.814Z,100127.83
2018-08-09T13:02:14.537Z,100126.11
2018-08-09T13:04:43.377Z,100121.11
2018-08-09T13:07:12.123Z,100122.13
2018-08-09T13:09:41.029Z,100128.17
2018-08-09T13:12:09.816Z,100121.79
2018-08-09T13:14:38.560Z,100121.70
2018-08-09T13:17:08.433Z,100122.52
2018-08-09T13:19:38.324Z,100127.08
2018-08-09T13:22:08.067Z,100132.13
2018-08-09T13:24:38.642Z,100127.91
2018-08-09T13:27:08.235Z,100131.50
2018-08-09T13:29:39.817Z,100130.59
2018-08-09T13:32:08.914Z,100134.09
2018-08-09T13:34:37.744Z,100128.31
2018-08-09T13:37:06.598Z,100123.05
2018-08-09T13:39:35.712Z,100124.91
2018-08-09T13:42:04.580Z,100125.13
2018-08-09T13:44:33.298Z,100123.44
2018-08-09T13:47:02.049Z,100124.13
2018-08-09T13:49:30.800Z,100119.50
2018-08-09T13:51:59.551Z,100130.69
2018-08-09T13:54:28.352Z,100130.94
2018-08-09T13:56:57.087Z,100125.86
2018-08-09T13:59:25.829Z,100120.25
2018-08-09T14:01:54.578Z,100124.17
2018-08-09T14:04:23.445Z,100121.98
2018-08-09T14:06:52.233Z,100119.63
2018-08-09T14:09:21.722Z,100108.05
2018-08-09T14:11:50.588Z,100124.44
2018-08-09T14:14:19.397Z,100115.84
2018-08-09T14:16:48.110Z,100108.41
2018-08-09T14:19:16.842Z,100112.16
2018-08-09T14:21:45.726Z,100116.27
2018-08-09T14:24:14.541Z,100116.36
2018-08-09T14:26:43.490Z,100115.28
2018-08-09T14:29:12.275Z,100108.98
2018-08-09T14:31:41.021Z,100113.20
2018-08-09T14:34:09.812Z,100107.50
2018-08-09T14:36:38.585Z,100110.15
2018-08-09T14:39:09.553Z,100106.81
2018-08-09T14:41:38.380Z,100106.25
2018-08-09T14:44:07.582Z,100111.47
2018-08-09T14:46:36.318Z,100102.02
2018-08-09T14:49:05.200Z,100103.17
2018-08-09T14:51:33.967Z,100108.14
2018-08-09T14:54:02.698Z,100107.33
2018-08-09T14:56:31.408Z,100110.09
2018-08-09T14:59:00.268Z,100098.66
2018-08-09T15:01:28.981Z,100102.13
2018-08-09T15:03:57.718Z,100099.58
2018-08-09T15:06:26.421Z,100103.38
2018-08-09T15:08:55.187Z,100103.74
2018-08-09T15:11:24.152Z,100104.19
2018-08-09T15:13:52.866Z,100103.25
2018-08-09T15:16:21.593Z,100102.13
2018-08-09T15:18:50.302Z,100104.09
2018-08-09T15:21:19.058Z,100099.57
2018-08-09T15:23:47.888Z,100099.67
2018-08-09T15:26:16.731Z,100095.16
2018-08-09T15:28:45.522Z,100098.45
2018-08-09T15:31:14.309Z,100095.45
2018-08-09T15:33:43.057Z,100101.64
2018-08-09T15:36:11.911Z,100100.74
2018-08-09T15:38:41.090Z,100106.92
2018-08-09T15:41:10.119Z,100099.44
2018-08-09T15:43:38.956Z,100101.48
2018-08-09T15:46:08.232Z,100106.53
2018-08-09T15:48:37.498Z,100103.19
2018-08-09T15:51:06.226Z,100097.63
2018-08-09T15:53:35.102Z,100100.52
2018-08-09T15:56:03.849Z,100098.76
2018-08-09T15:58:32.607Z,100096.77
2018-08-09T16:01:01.370Z,100095.16
2018-08-09T16:03:30.102Z,100095.50
2018-08-09T16:05:58.836Z,100096.30
2018-08-09T16:08:27.542Z,100095.55
2018-08-09T16:10:56.275Z,100102.43
2018-08-09T16:13:25.035Z,100102.74
2018-08-09T16:15:53.821Z,100104.81
2018-08-09T16:18:22.563Z,100102.82
2018-08-09T16:20:51.395Z,100104.73
2018-08-09T16:23:20.194Z,100107.91
2018-08-09T16:25:49.010Z,100111.63
2018-08-09T16:28:17.751Z,100111.66
2018-08-09T16:30:46.473Z,100114.97
2018-08-09T16:33:15.186Z,100117.21
2018-08-09T16:35:43.947Z,100115.95
2018-08-09T16:38:12.748Z,100117.15
2018-08-09T16:40:41.489Z,100123.49
2018-08-09T16:43:10.216Z,100132.31
2018-08-09T16:45:39.036Z,100122.70
2018-08-09T16:48:08.010Z,100136.09
2018-08-09T16:50:38.502Z,100133.48
2018-08-09T16:53:07.288Z,100124.72
2018-08-09T16:55:36.029Z,100127.86
2018-08-09T16:58:04.782Z,100136.89
2018-08-09T17:00:33.611Z,100143.95
2018-08-09T17:03:02.760Z,100144.94
2018-08-09T17:05:31.505Z,100148.64
2018-08-09T17:08:00.296Z,100145.48
2018-08-09T17:10:31.382Z,100143.87
2018-08-09T17:13:00.249Z,100149.52
2018-08-09T17:15:29.917Z,100144.30
2018-08-09T17:17:59.507Z,100143.90
2018-08-09T17:20:30.357Z,100145.70
2018-08-09T17:22:59.513Z,100145.21
2018-08-09T17:25:28.877Z,100151.27
2018-08-09T17:27:57.718Z,100155.71
2018-08-09T17:30:27.608Z,100149.76
2018-08-09T17:32:57.366Z,100154.63
2018-08-09T17:35:26.164Z,100142.75
2018-08-09T17:37:55.144Z,100157.59
2018-08-09T17:40:27.096Z,100152.89
2018-08-09T17:42:56.925Z,100159.57
2018-08-09T17:45:27.237Z,100164.08
2018-08-09T17:47:56.037Z,100170.75
2018-08-09T17:50:24.810Z,100170.34
2018-08-09T17:52:53.953Z,100169.03
2018-08-09T17:55:22.749Z,100174.46
2018-08-09T17:57:51.520Z,100172.20
2018-08-09T18:00:27.791Z,100172.98
2018-08-09T18:02:56.627Z,100176.30
2018-08-09T18:05:25.549Z,100187.61
2018-08-09T18:07:55.094Z,100186.47
2018-08-09T18:10:28.267Z,100193.11
2018-08-09T18:12:57.045Z,100197.02
2018-08-09T18:15:27.185Z,100202.69
2018-08-09T18:17:56.435Z,100204.67
2018-08-09T18:20:27.344Z,100210.45
2018-08-09T18:22:56.968Z,100212.71
2018-08-09T18:25:25.789Z,100208.12
2018-08-09T18:27:54.537Z,100216.22
2018-08-09T18:30:23.346Z,100219.47
2018-08-09T18:32:52.211Z,100215.95
2018-08-09T18:35:21.137Z,100217.49
2018-08-09T18:37:49.931Z,100223.05
2018-08-09T18:40:20.725Z,100222.53
2018-08-09T18:42:49.495Z,100219.58
2018-08-09T18:45:18.242Z,100217.40
2018-08-09T18:47:47.069Z,100217.70
2018-08-09T18:50:20.008Z,100214.45
2018-08-09T18:52:48.864Z,100220.20
2018-08-09T18:55:18.656Z,100216.17
2018-08-09T18:57:47.409Z,100221.94
2018-08-09T19:00:19.482Z,100216.22
2018-08-09T19:02:48.782Z,100225.84
2018-08-09T19:05:17.860Z,100222.95
2018-08-09T19:07:46.704Z,100222.39
2018-08-09T19:10:28.192Z,100224.63
2018-08-09T19:12:56.964Z,100231.52
2018-08-09T19:15:25.775Z,100229.72
2018-08-09T19:17:54.732Z,100228.13
2018-08-09T19:20:25.580Z,100228.09
2018-08-09T19:22:54.624Z,100226.13
2018-08-09T19:25:23.382Z,100231.83
2018-08-09T19:27:52.209Z,100227.97
2018-08-09T19:30:23.774Z,100227.70
2018-08-09T19:32:52.585Z,100227.67
2018-08-09T19:35:22.015Z,100225.55
2018-08-09T19:37:50.847Z,100229.89
2018-08-09T19:40:24.006Z,100224.23
2018-08-09T19:42:52.839Z,100229.46
2018-08-09T19:45:21.712Z,100227.88
2018-08-09T19:47:50.620Z,100223.83
2018-08-09T19:50:20.771Z,100224.70
2018-08-09T19:52:49.572Z,100234.00
2018-08-09T19:55:19.726Z,100197.24
2018-08-09T19:57:49.392Z,100234.55
2018-08-09T20:00:20.356Z,100242.75
2018-08-09T20:02:49.724Z,100237.34
2018-08-09T20:05:18.685Z,100241.45
2018-08-09T20:07:47.540Z,100238.22
2018-08-09T20:10:16.650Z,100240.64
2018-08-09T20:12:46.478Z,100236.02
2018-08-09T20:15:17.215Z,100239.84
2018-08-09T20:17:46.052Z,100242.82
2018-08-09T20:20:16.210Z,100242.31
2018-08-09T20:22:45.160Z,100242.02
2018-08-09T20:25:14.481Z,100251.56
2018-08-09T20:27:43.818Z,100250.48
2018-08-09T20:32:41.394Z,100258.11
2018-08-09T20:35:12.347Z,100253.22
2018-08-09T20:37:41.525Z,100267.13
2018-08-09T20:40:11.259Z,100261.95
2018-08-09T20:42:40.441Z,100264.66
2018-08-09T20:45:11.117Z,100264.37
2018-08-09T20:47:39.917Z,100271.70
2018-08-09T20:50:13.197Z,100265.47
2018-08-09T20:52:42.725Z,100270.66
2018-08-09T20:55:12.675Z,100274.19
2018-08-09T20:57:42.531Z,100273.39
2018-08-09T21:00:14.057Z,100282.12
2018-08-09T21:02:43.223Z,100281.85
2018-08-09T21:05:21.597Z,100279.41
2018-08-09T21:07:51.108Z,100280.48
2018-08-09T21:10:19.849Z,100282.66
2018-08-09T21:12:48.632Z,100289.45
2018-08-09T21:15:18.367Z,100291.92
2018-08-09T21:17:47.160Z,100291.39
2018-08-09T21:20:16.283Z,100302.82
2018-08-09T21:22:46.402Z,100302.54
2018-08-09T21:25:15.114Z,100300.91
2018-08-09T21:27:44.222Z,100305.53
2018-08-09T21:30:15.463Z,100301.20
2018-08-09T21:32:44.663Z,100296.55
2018-08-09T21:35:13.383Z,100299.02
2018-08-09T21:37:42.838Z,100300.08
2018-08-09T21:40:12.456Z,100303.34
2018-08-09T21:42:41.250Z,100296.54
2018-08-09T21:45:12.577Z,100298.45
2018-08-09T21:47:41.308Z,100299.27
2018-08-09T21:50:13.173Z,100304.42
2018-08-09T21:52:42.358Z,100306.86
2018-08-09T21:55:12.060Z,100309.05
2018-08-09T21:57:41.046Z,100312.33
2018-08-09T22:00:50.233Z,100313.95
2018-08-09T22:03:21.322Z,100312.83
2018-08-09T22:05:55.186Z,100311.17
2018-08-09T22:08:29.041Z,100312.26
2018-08-09T22:11:03.166Z,100315.25
2018-08-09T22:13:37.112Z,100320.70
2018-08-09T22:16:11.441Z,100312.30
2018-08-09T22:18:45.469Z,100308.76
2018-08-09T22:21:19.314Z,100310.08
2018-08-09T22:23:48.505Z,100310.91
2018-08-09T22:26:17.209Z,100309.21
2018-08-09T22:28:46.126Z,100312.01
2018-08-09T22:31:15.477Z,100312.57
2018-08-09T22:33:44.294Z,100316.37
2018-08-09T22:36:13.043Z,100318.52
2018-08-09T22:38:41.749Z,100314.12
2018-08-09T22:41:10.510Z,100308.05
2018-08-09T22:43:39.245Z,100310.69
2018-08-09T22:46:07.974Z,100316.37
2018-08-09T22:48:36.709Z,100315.78
2018-08-09T22:51:05.667Z,100314.42
2018-08-09T22:53:34.451Z,100313.53
2018-08-09T22:56:03.181Z,100313.49
2018-08-09T22:58:31.901Z,100316.80
2018-08-09T23:01:00.647Z,100310.77
2018-08-09T23:03:29.353Z,100313.30
2018-08-09T23:05:58.119Z,100316.02
2018-08-09T23:08:26.809Z,100311.90
2018-08-09T23:10:55.522Z,100316.30
2018-08-09T23:13:24.264Z,100317.34
2018-08-09T23:15:52.977Z,100318.81
2018-08-09T23:18:21.874Z,100320.06
2018-08-09T23:20:50.579Z,100324.15
2018-08-09T23:23:19.269Z,100319.63
2018-08-09T23:25:48.094Z,100317.59
2018-08-09T23:28:16.870Z,100324.31
2018-08-09T23:30:45.553Z,100327.73
2018-08-09T23:33:14.239Z,100326.86
2018-08-09T23:35:42.933Z,100323.80
2018-08-09T23:38:11.677Z,100322.68
2018-08-09T23:40:40.395Z,100326.75
2018-08-09T23:43:09.077Z,100330.33
2018-08-09T23:45:37.772Z,100331.74
2018-08-09T23:48:06.678Z,100337.19
2018-08-09T23:50:35.437Z,100338.22
2018-08-09T23:53:04.277Z,100341.27
2018-08-09T23:55:32.969Z,100337.59
2018-08-09T23:58:01.676Z,100346.66
